Time;durP1;ratioP1;P1;durP2;ratioP2;P2;SDS_P1;SDS_P2;PMS_P1;PMS_P2;Temp;Humidity;BMP_temperature;BMP_pressure;BME280_temperature;BME280_humidity;BME280_pressure;Samples;Min_cycle;Max_cycle;Signal;HPM_P1;HPM_P2
2022/04/09 00:01:23;;;;;;;4.00;1.35;;;;;;;;;;5057104;28;20036;-82
2022/04/09 00:03:49;;;;;;;2.20;1.50;;;;;;;;;;5057490;28;20051;-82
2022/04/09 00:06:14;;;;;;;3.00;1.27;;;;;;;;;;5040603;28;20039;-82
2022/04/09 00:08:39;;;;;;;2.83;1.33;;;;;;;;;;5073582;28;20047;-82
2022/04/09 00:11:05;;;;;;;2.92;1.15;;;;;;;;;;5073497;28;20513;-82
2022/04/09 00:13:31;;;;;;;2.40;1.10;;;;;;;;;;5074063;28;20032;-82
2022/04/09 00:15:56;;;;;;;3.05;1.23;;;;;;;;;;5058766;28;20036;-81
2022/04/09 00:18:21;;;;;;;2.60;1.20;;;;;;;;;;5060598;28;20036;-82
2022/04/09 00:20:49;;;;;;;3.88;1.10;;;;;;;;;;5043736;28;20028;-81
2022/04/09 00:23:15;;;;;;;4.32;1.10;;;;;;;;;;5044024;28;20043;-82
2022/04/09 00:25:40;;;;;;;2.75;1.23;;;;;;;;;;5043985;28;20032;-82
2022/04/09 00:28:05;;;;;;;2.95;1.33;;;;;;;;;;5060334;28;20035;-82
2022/04/09 00:30:31;;;;;;;2.60;1.13;;;;;;;;;;5060266;28;20398;-81
2022/04/09 00:32:56;;;;;;;3.38;1.33;;;;;;;;;;5074275;28;20481;-82
2022/04/09 00:35:22;;;;;;;3.08;1.17;;;;;;;;;;5040354;28;20111;-83
2022/04/09 00:37:47;;;;;;;3.42;1.25;;;;;;;;;;5073344;28;20036;-83
2022/04/09 00:40:14;;;;;;;5.30;1.35;;;;;;;;;;5039836;28;20162;-82
2022/04/09 00:42:41;;;;;;;3.75;1.20;;;;;;;;;;5031646;28;20051;-83
2022/04/09 00:45:08;;;;;;;2.85;1.13;;;;;;;;;;5043874;28;20493;-82
2022/04/09 00:47:35;;;;;;;3.05;1.08;;;;;;;;;;5043941;28;20455;-82
2022/04/09 00:50:00;;;;;;;4.00;1.38;;;;;;;;;;5060008;28;20035;-83
2022/04/09 00:52:26;;;;;;;3.45;1.30;;;;;;;;;;5093540;28;20425;-82
2022/04/09 00:54:51;;;;;;;2.97;0.95;;;;;;;;;;5043424;28;20118;-82
2022/04/09 00:57:16;;;;;;;3.22;1.00;;;;;;;;;;5056738;28;20047;-83
2022/04/09 00:59:44;;;;;;;3.70;1.05;;;;;;;;;;5039946;28;20035;-82
2022/04/09 01:02:09;;;;;;;3.47;1.52;;;;;;;;;;5023779;28;20062;-82
2022/04/09 01:04:34;;;;;;;3.08;1.05;;;;;;;;;;5040045;28;20040;-82
2022/04/09 01:07:00;;;;;;;3.65;1.42;;;;;;;;;;5039680;28;20036;-82
2022/04/09 01:09:25;;;;;;;2.70;0.80;;;;;;;;;;5040106;28;20264;-82
2022/04/09 01:11:51;;;;;;;1.90;0.80;;;;;;;;;;5040005;28;20040;-82
2022/04/09 01:14:17;;;;;;;2.58;0.85;;;;;;;;;;5056822;28;20074;-83
2022/04/09 01:16:42;;;;;;;2.67;1.20;;;;;;;;;;5056633;28;20043;-82
2022/04/09 01:19:08;;;;;;;2.65;1.25;;;;;;;;;;5072766;28;20036;-82
2022/04/09 01:21:33;;;;;;;3.60;1.17;;;;;;;;;;5040093;28;20044;-82
2022/04/09 01:24:01;;;;;;;4.35;1.15;;;;;;;;;;5042863;28;20070;-82
2022/04/09 01:26:26;;;;;;;4.13;1.15;;;;;;;;;;5043587;28;20514;-82
2022/04/09 01:28:51;;;;;;;2.50;1.02;;;;;;;;;;5060102;28;20114;-82
2022/04/09 01:31:17;;;;;;;3.08;1.02;;;;;;;;;;5060062;28;20028;-83
2022/04/09 01:33:43;;;;;;;3.55;1.23;;;;;;;;;;5059867;28;20032;-82
2022/04/09 01:36:08;;;;;;;2.70;1.02;;;;;;;;;;5027101;28;20035;-82
2022/04/09 01:38:34;;;;;;;3.72;1.08;;;;;;;;;;5043395;28;20028;-82
2022/04/09 01:41:03;;;;;;;2.35;0.70;;;;;;;;;;5060174;28;20036;-82
2022/04/09 01:43:28;;;;;;;3.95;1.27;;;;;;;;;;5043422;28;20152;-82
2022/04/09 01:45:53;;;;;;;3.60;1.33;;;;;;;;;;5042974;28;20028;-83
2022/04/09 01:48:19;;;;;;;3.08;1.05;;;;;;;;;;5026320;28;20024;-82
2022/04/09 01:50:44;;;;;;;3.05;0.90;;;;;;;;;;5059511;28;20414;-82
2022/04/09 01:53:10;;;;;;;3.53;1.23;;;;;;;;;;5043072;28;20569;-83
2022/04/09 01:55:35;;;;;;;2.45;1.00;;;;;;;;;;5045211;28;20036;-82
2022/04/09 01:58:01;;;;;;;1.98;0.90;;;;;;;;;;5062896;28;20039;-82
2022/04/09 02:00:26;;;;;;;1.98;0.77;;;;;;;;;;5096784;28;20038;-82
2022/04/09 02:02:52;;;;;;;2.67;1.10;;;;;;;;;;5079412;28;20401;-82
2022/04/09 02:05:17;;;;;;;5.18;1.30;;;;;;;;;;5079894;28;20118;-82
2022/04/09 02:07:43;;;;;;;3.50;0.93;;;;;;;;;;5046309;28;20039;-82
2022/04/09 02:10:09;;;;;;;3.53;1.02;;;;;;;;;;5079657;28;20031;-83
2022/04/09 02:12:34;;;;;;;2.92;0.88;;;;;;;;;;5062836;28;20085;-82
2022/04/09 02:15:01;;;;;;;2.15;0.75;;;;;;;;;;5062589;28;20039;-82
2022/04/09 02:17:26;;;;;;;2.72;0.70;;;;;;;;;;5079332;28;20059;-82
2022/04/09 02:19:51;;;;;;;1.90;0.90;;;;;;;;;;5062754;28;20040;-82
2022/04/09 02:22:18;;;;;;;2.45;0.80;;;;;;;;;;5079434;28;20047;-83
2022/04/09 02:24:43;;;;;;;4.50;1.05;;;;;;;;;;5079459;28;20032;-82
2022/04/09 02:27:09;;;;;;;2.95;0.88;;;;;;;;;;5045860;28;20119;-82
2022/04/09 02:29:34;;;;;;;2.25;0.88;;;;;;;;;;5045655;28;20039;-82
2022/04/09 02:32:02;;;;;;;1.80;0.77;;;;;;;;;;5078188;28;20040;-82
2022/04/09 02:34:28;;;;;;;2.55;0.82;;;;;;;;;;5075570;28;20478;-82
2022/04/09 02:36:53;;;;;;;4.38;1.52;;;;;;;;;;5025974;28;20115;-82
2022/04/09 02:39:21;;;;;;;3.78;0.80;;;;;;;;;;5042768;28;20130;-82
2022/04/09 02:41:48;;;;;;;4.00;0.90;;;;;;;;;;5043302;28;20040;-82
2022/04/09 02:44:13;;;;;;;2.97;0.93;;;;;;;;;;5026179;28;20375;-82
2022/04/09 02:46:39;;;;;;;3.17;0.95;;;;;;;;;;5025248;28;20134;-82
2022/04/09 02:49:04;;;;;;;3.28;1.05;;;;;;;;;;5042164;28;20050;-82
2022/04/09 02:51:30;;;;;;;2.58;1.10;;;;;;;;;;5058747;28;20062;-82
2022/04/09 02:53:55;;;;;;;3.83;1.30;;;;;;;;;;5058539;28;20097;-82
2022/04/09 02:56:20;;;;;;;3.25;1.02;;;;;;;;;;5063274;28;20044;-82
2022/04/09 02:58:46;;;;;;;3.80;1.13;;;;;;;;;;5041842;28;20036;-82
2022/04/09 03:01:12;;;;;;;2.78;0.80;;;;;;;;;;5041449;28;20119;-82
2022/04/09 03:03:37;;;;;;;4.10;1.10;;;;;;;;;;5042166;28;20545;-82
2022/04/09 03:06:02;;;;;;;2.58;0.63;;;;;;;;;;5041563;28;20498;-82
2022/04/09 03:08:28;;;;;;;2.75;0.90;;;;;;;;;;5041690;28;20379;-82
2022/04/09 03:10:53;;;;;;;2.80;0.60;;;;;;;;;;5075058;28;20555;-82
2022/04/09 03:13:19;;;;;;;2.63;0.80;;;;;;;;;;5058461;28;20024;-83
2022/04/09 03:15:44;;;;;;;2.95;0.88;;;;;;;;;;5058593;28;20047;-82
2022/04/09 03:18:10;;;;;;;3.00;0.82;;;;;;;;;;5061538;28;20374;-82
2022/04/09 03:20:36;;;;;;;4.28;1.00;;;;;;;;;;5061422;28;20036;-82
2022/04/09 03:23:02;;;;;;;2.85;0.90;;;;;;;;;;5078547;28;20067;-82
2022/04/09 03:25:27;;;;;;;3.72;1.30;;;;;;;;;;5052923;28;20046;-82
2022/04/09 03:27:52;;;;;;;3.25;0.95;;;;;;;;;;5044740;28;20127;-82
2022/04/09 03:30:18;;;;;;;2.92;0.95;;;;;;;;;;5044341;28;20042;-82
2022/04/09 03:32:43;;;;;;;3.58;1.10;;;;;;;;;;5076413;28;20044;-82
2022/04/09 03:35:09;;;;;;;2.47;0.60;;;;;;;;;;5057857;28;20090;-82
2022/04/09 03:37:35;;;;;;;3.10;1.10;;;;;;;;;;5025169;28;20461;-82
2022/04/09 03:40:02;;;;;;;2.40;0.80;;;;;;;;;;5041466;28;20494;-83
2022/04/09 03:42:28;;;;;;;2.58;0.68;;;;;;;;;;5024874;28;20028;-83
2022/04/09 03:44:53;;;;;;;2.00;1.00;;;;;;;;;;5040204;28;20449;-83
2022/04/09 03:47:19;;;;;;;2.53;1.00;;;;;;;;;;5041098;28;20145;-83
2022/04/09 03:49:44;;;;;;;2.22;0.98;;;;;;;;;;5040872;28;20569;-83
2022/04/09 03:52:10;;;;;;;4.13;1.30;;;;;;;;;;5040830;28;20105;-83
2022/04/09 03:54:37;;;;;;;2.85;1.02;;;;;;;;;;5040848;28;20073;-82
2022/04/09 03:57:03;;;;;;;3.50;1.10;;;;;;;;;;5065959;28;20109;-82
2022/04/09 03:59:28;;;;;;;5.63;1.40;;;;;;;;;;5077013;28;20493;-82
2022/04/09 04:01:54;;;;;;;5.22;0.90;;;;;;;;;;5060756;28;20067;-82
2022/04/09 04:04:19;;;;;;;2.67;0.80;;;;;;;;;;5060676;28;20130;-83
2022/04/09 04:06:45;;;;;;;5.45;1.05;;;;;;;;;;5060747;28;20046;-82
2022/04/09 04:09:12;;;;;;;2.38;0.90;;;;;;;;;;5060519;28;20097;-82
2022/04/09 04:11:37;;;;;;;3.25;0.93;;;;;;;;;;5060993;28;20024;-82
2022/04/09 04:14:04;;;;;;;4.30;1.40;;;;;;;;;;5060538;28;20127;-82
2022/04/09 04:16:29;;;;;;;3.65;1.33;;;;;;;;;;5041168;28;20035;-83
2022/04/09 04:18:55;;;;;;;2.70;0.90;;;;;;;;;;5042650;28;20036;-82
2022/04/09 04:21:20;;;;;;;3.92;1.02;;;;;;;;;;5057419;28;20062;-82
2022/04/09 04:23:46;;;;;;;3.85;1.02;;;;;;;;;;5046407;28;20059;-82
2022/04/09 04:26:11;;;;;;;3.00;0.80;;;;;;;;;;5044191;28;20027;-82
2022/04/09 04:28:37;;;;;;;2.20;0.60;;;;;;;;;;5043444;28;20130;-82
2022/04/09 04:31:02;;;;;;;4.00;1.48;;;;;;;;;;5077050;28;20027;-82
2022/04/09 04:33:27;;;;;;;3.25;0.75;;;;;;;;;;5040190;28;20103;-82
2022/04/09 04:35:53;;;;;;;3.42;1.05;;;;;;;;;;5040263;28;20032;-83
2022/04/09 04:38:18;;;;;;;3.03;1.08;;;;;;;;;;5023893;28;20059;-82
2022/04/09 04:40:44;;;;;;;3.92;1.05;;;;;;;;;;5057017;28;20039;-81
2022/04/09 04:43:09;;;;;;;3.78;1.08;;;;;;;;;;5039708;28;20048;-82
2022/04/09 04:45:35;;;;;;;3.30;0.63;;;;;;;;;;5057026;28;20119;-82
2022/04/09 04:48:00;;;;;;;4.28;1.85;;;;;;;;;;5040332;28;20040;-82
2022/04/09 04:50:25;;;;;;;3.65;1.10;;;;;;;;;;5023816;28;20201;-82
2022/04/09 04:52:51;;;;;;;3.30;0.90;;;;;;;;;;5056859;28;20044;-83
2022/04/09 04:55:16;;;;;;;2.60;1.00;;;;;;;;;;5039773;28;20067;-82
2022/04/09 04:57:52;;;;;;;3.45;1.20;;;;;;;;;;5040499;28;20410;-82
2022/04/09 05:00:22;;;;;;;2.65;0.85;;;;;;;;;;5045895;28;20046;-83
2022/04/09 05:02:48;;;;;;;2.25;0.95;;;;;;;;;;5044391;28;20036;-82
2022/04/09 05:05:13;;;;;;;3.92;1.20;;;;;;;;;;5044112;28;20039;-82
2022/04/09 05:07:42;;;;;;;3.10;1.00;;;;;;;;;;5061235;28;20068;-82
2022/04/09 05:10:08;;;;;;;3.15;0.70;;;;;;;;;;5060875;28;20086;-82
2022/04/09 05:12:34;;;;;;;3.08;0.98;;;;;;;;;;5061789;28;20106;-82
2022/04/09 05:15:00;;;;;;;2.33;1.10;;;;;;;;;;5047347;28;20388;-82
2022/04/09 05:17:27;;;;;;;2.58;0.57;;;;;;;;;;5097479;28;20110;-85
2022/04/09 05:19:52;;;;;;;2.60;0.90;;;;;;;;;;5042038;28;20122;-86
2022/04/09 05:22:18;;;;;;;4.20;1.08;;;;;;;;;;5047266;28;20126;-84
2022/04/09 05:24:43;;;;;;;16.63;1.98;;;;;;;;;;5046398;28;20028;-86
2022/04/09 05:27:09;;;;;;;6.50;1.45;;;;;;;;;;5044940;28;20035;-84
2022/04/09 05:29:34;;;;;;;2.95;1.10;;;;;;;;;;5077813;28;20097;-82
2022/04/09 05:32:00;;;;;;;2.97;1.15;;;;;;;;;;5046682;28;20081;-82
2022/04/09 05:34:25;;;;;;;5.72;1.30;;;;;;;;;;5061042;28;20036;-82
2022/04/09 05:36:51;;;;;;;4.55;1.70;;;;;;;;;;5060042;28;20028;-83
2022/04/09 05:39:17;;;;;;;5.47;1.42;;;;;;;;;;5043582;28;20039;-82
2022/04/09 05:41:43;;;;;;;5.78;1.70;;;;;;;;;;5042855;28;20498;-82
2022/04/09 05:44:09;;;;;;;5.53;1.80;;;;;;;;;;5043407;28;20032;-81
2022/04/09 05:46:35;;;;;;;6.47;1.50;;;;;;;;;;5059821;28;20169;-82
2022/04/09 05:49:03;;;;;;;7.43;1.60;;;;;;;;;;5027091;28;20465;-87
2022/04/09 05:51:30;;;;;;;4.90;1.40;;;;;;;;;;5042806;28;20055;-87
2022/04/09 05:53:55;;;;;;;9.75;1.55;;;;;;;;;;5042965;28;20067;-84
2022/04/09 05:56:22;;;;;;;6.05;1.38;;;;;;;;;;5059050;28;20068;-81
2022/04/09 05:58:47;;;;;;;5.28;1.52;;;;;;;;;;5057121;28;20088;-80
2022/04/09 06:01:13;;;;;;;6.72;1.30;;;;;;;;;;5059392;28;20033;-80
2022/04/09 06:03:38;;;;;;;4.13;1.15;;;;;;;;;;5064089;28;20054;-84
2022/04/09 06:06:04;;;;;;;6.40;3.00;;;;;;;;;;5045541;28;20585;-83
2022/04/09 06:08:33;;;;;;;5.85;2.60;;;;;;;;;;5044141;28;20402;-83
2022/04/09 06:10:59;;;;;;;12.60;2.75;;;;;;;;;;5046673;28;20393;-83
2022/04/09 06:13:25;;;;;;;14.73;5.60;;;;;;;;;;5046323;28;20032;-83
2022/04/09 06:15:50;;;;;;;13.90;7.22;;;;;;;;;;5059927;28;20036;-83
2022/04/09 06:18:15;;;;;;;14.35;6.13;;;;;;;;;;5046529;28;20073;-82
2022/04/09 06:20:41;;;;;;;8.63;5.07;;;;;;;;;;5062879;28;20038;-83
2022/04/09 06:23:07;;;;;;;11.05;6.05;;;;;;;;;;5045652;28;20039;-83
2022/04/09 06:25:34;;;;;;;14.68;5.93;;;;;;;;;;5063243;28;20043;-84
2022/04/09 06:27:59;;;;;;;9.45;5.35;;;;;;;;;;5045621;28;20032;-83
2022/04/09 06:30:25;;;;;;;10.77;5.05;;;;;;;;;;5045525;28;20035;-81
2022/04/09 06:32:50;;;;;;;11.82;5.50;;;;;;;;;;5079040;28;20076;-83
2022/04/09 06:35:17;;;;;;;13.13;6.88;;;;;;;;;;5043722;28;20049;-83
2022/04/09 06:37:42;;;;;;;16.52;5.97;;;;;;;;;;5061796;28;20524;-82
2022/04/09 06:40:09;;;;;;;12.68;5.45;;;;;;;;;;5045602;28;20031;-83
2022/04/09 06:42:38;;;;;;;9.15;5.35;;;;;;;;;;5062860;28;20035;-83
2022/04/09 06:45:05;;;;;;;21.98;5.13;;;;;;;;;;5045749;28;20134;-83
2022/04/09 06:47:31;;;;;;;14.82;5.32;;;;;;;;;;5062588;28;20374;-82
2022/04/09 06:49:57;;;;;;;12.75;5.25;;;;;;;;;;5062044;28;20040;-83
2022/04/09 06:52:23;;;;;;;9.18;4.88;;;;;;;;;;5045766;28;20038;-83
2022/04/09 06:54:49;;;;;;;8.73;4.13;;;;;;;;;;5043794;28;20058;-84
2022/04/09 06:57:16;;;;;;;8.40;4.28;;;;;;;;;;5070010;28;20219;-85
2022/04/09 06:59:42;;;;;;;8.27;3.78;;;;;;;;;;5062188;28;20065;-85
2022/04/09 07:02:07;;;;;;;9.10;3.53;;;;;;;;;;5045844;28;20036;-85
2022/04/09 07:04:34;;;;;;;9.43;3.90;;;;;;;;;;5062217;28;20058;-85
2022/04/09 07:07:00;;;;;;;8.10;3.92;;;;;;;;;;5079264;28;20135;-85
2022/04/09 07:09:27;;;;;;;9.55;3.55;;;;;;;;;;5078695;28;20046;-85
2022/04/09 07:11:53;;;;;;;9.57;3.47;;;;;;;;;;5074825;28;20028;-85
2022/04/09 07:14:19;;;;;;;8.40;3.50;;;;;;;;;;5025618;28;20032;-85
2022/04/09 07:16:47;;;;;;;6.85;3.42;;;;;;;;;;5047401;28;20055;-86
2022/04/09 07:19:13;;;;;;;9.85;3.83;;;;;;;;;;5041929;28;20059;-86
2022/04/09 07:21:39;;;;;;;11.88;3.72;;;;;;;;;;5057526;28;20467;-85
2022/04/09 07:24:05;;;;;;;7.95;3.22;;;;;;;;;;5078646;28;20531;-84
2022/04/09 07:26:31;;;;;;;9.27;3.33;;;;;;;;;;5045306;28;20028;-85
2022/04/09 07:28:57;;;;;;;8.35;3.38;;;;;;;;;;5061463;28;20505;-84
2022/04/09 07:31:23;;;;;;;9.93;2.88;;;;;;;;;;5043569;28;20081;-84
2022/04/09 07:33:48;;;;;;;7.28;3.45;;;;;;;;;;5068291;28;20032;-84
2022/04/09 07:36:15;;;;;;;9.68;3.03;;;;;;;;;;5061256;28;20032;-84
2022/04/09 07:38:40;;;;;;;9.95;3.60;;;;;;;;;;5044915;28;20126;-85
2022/04/09 07:41:07;;;;;;;6.70;2.80;;;;;;;;;;5061502;28;20035;-84
2022/04/09 07:43:32;;;;;;;7.55;2.85;;;;;;;;;;5044442;28;20077;-84
2022/04/09 07:45:58;;;;;;;9.10;2.75;;;;;;;;;;5060964;28;20460;-84
2022/04/09 07:48:23;;;;;;;8.43;3.13;;;;;;;;;;5055342;28;20036;-84
2022/04/09 07:50:49;;;;;;;7.10;2.45;;;;;;;;;;5057352;28;20028;-85
2022/04/09 07:53:14;;;;;;;5.80;2.13;;;;;;;;;;5041167;28;20131;-84
2022/04/09 07:55:42;;;;;;;6.93;2.78;;;;;;;;;;5043910;28;20070;-84
2022/04/09 07:58:08;;;;;;;11.90;4.13;;;;;;;;;;5044365;28;20044;-84
2022/04/09 08:00:34;;;;;;;7.18;3.10;;;;;;;;;;5061024;28;20050;-83
2022/04/09 08:02:59;;;;;;;9.63;3.13;;;;;;;;;;5060829;28;20116;-83
2022/04/09 08:05:25;;;;;;;8.85;2.78;;;;;;;;;;5077220;28;20032;-83
2022/04/09 08:07:50;;;;;;;5.13;2.33;;;;;;;;;;5044109;28;20039;-83
2022/04/09 08:10:16;;;;;;;10.48;3.10;;;;;;;;;;5077693;28;20080;-83
2022/04/09 08:12:42;;;;;;;8.70;2.58;;;;;;;;;;5061231;28;20454;-83
2022/04/09 08:15:08;;;;;;;7.80;3.38;;;;;;;;;;5061061;28;20081;-83
2022/04/09 08:17:36;;;;;;;6.40;1.83;;;;;;;;;;5040732;28;20032;-83
2022/04/09 08:20:02;;;;;;;8.23;2.47;;;;;;;;;;5023852;28;20040;-83
2022/04/09 08:22:28;;;;;;;7.88;2.25;;;;;;;;;;5024165;28;20040;-83
2022/04/09 08:25:01;;;;;;;8.75;2.22;;;;;;;;;;5038862;28;20027;-83
2022/04/09 08:27:27;;;;;;;8.38;2.47;;;;;;;;;;5060597;28;20055;-83
2022/04/09 08:29:52;;;;;;;5.95;2.72;;;;;;;;;;5043050;28;20024;-84
2022/04/09 08:32:18;;;;;;;5.53;2.08;;;;;;;;;;5040465;28;20131;-84
2022/04/09 08:34:44;;;;;;;7.05;2.00;;;;;;;;;;5028488;28;20043;-84
2022/04/09 08:37:18;;;;;;;10.00;2.70;;;;;;;;;;5040044;28;20052;-87
2022/04/09 08:39:44;;;;;;;6.55;2.45;;;;;;;;;;5058909;28;20031;-84
2022/04/09 08:42:10;;;;;;;6.82;1.85;;;;;;;;;;5060131;28;20048;-85
2022/04/09 08:44:38;;;;;;;8.40;2.25;;;;;;;;;;5040431;28;20410;-83
2022/04/09 08:47:04;;;;;;;7.35;1.90;;;;;;;;;;5056168;28;20028;-84
2022/04/09 08:49:30;;;;;;;7.43;2.08;;;;;;;;;;5039638;28;20044;-84
2022/04/09 08:51:55;;;;;;;5.10;2.00;;;;;;;;;;5056401;28;20064;-83
2022/04/09 08:54:21;;;;;;;6.13;2.13;;;;;;;;;;5060238;28;20040;-84
2022/04/09 08:56:49;;;;;;;7.30;2.13;;;;;;;;;;5039603;28;20119;-83
2022/04/09 08:59:15;;;;;;;4.75;2.17;;;;;;;;;;5056490;28;20030;-84
2022/04/09 09:01:40;;;;;;;8.10;1.83;;;;;;;;;;5040017;28;20040;-85
2022/04/09 09:04:09;;;;;;;5.32;1.90;;;;;;;;;;5039661;28;20081;-84
2022/04/09 09:06:40;;;;;;;6.15;1.85;;;;;;;;;;5039888;28;20514;-84
2022/04/09 09:09:06;;;;;;;6.90;1.95;;;;;;;;;;5023754;28;20468;-84
2022/04/09 09:11:44;;;;;;;7.07;1.98;;;;;;;;;;5039762;28;20089;-84
2022/04/09 09:14:32;;;;;;;4.55;1.58;;;;;;;;;;5015814;28;20024;-85
2022/04/09 09:16:58;;;;;;;5.70;2.05;;;;;;;;;;5039791;28;20127;-85
2022/04/09 09:19:48;;;;;;;5.32;2.13;;;;;;;;;;5023627;28;20512;-82
2022/04/09 09:22:16;;;;;;;10.40;2.00;;;;;;;;;;5024933;28;20509;-80
2022/04/09 09:24:42;;;;;;;6.65;1.70;;;;;;;;;;5053219;28;20036;-80
2022/04/09 09:27:07;;;;;;;6.35;2.05;;;;;;;;;;5076415;28;20504;-80
2022/04/09 09:29:33;;;;;;;4.40;1.50;;;;;;;;;;5059650;28;20551;-80
2022/04/09 09:32:00;;;;;;;7.35;1.88;;;;;;;;;;5056553;28;20028;-80
2022/04/09 09:34:26;;;;;;;26.13;2.67;;;;;;;;;;5025841;28;20032;-79
2022/04/09 09:36:51;;;;;;;4.80;1.00;;;;;;;;;;5048772;28;20082;-80
2022/04/09 09:39:19;;;;;;;3.88;1.55;;;;;;;;;;5040342;28;20054;-81
2022/04/09 09:41:52;;;;;;;6.55;1.58;;;;;;;;;;5040234;28;20036;-80
2022/04/09 09:44:18;;;;;;;5.35;1.30;;;;;;;;;;5060094;28;20032;-80
2022/04/09 09:46:45;;;;;;;5.47;1.23;;;;;;;;;;5043332;28;20115;-80
2022/04/09 09:49:11;;;;;;;4.10;1.63;;;;;;;;;;5043875;28;20115;-78
2022/04/09 09:51:36;;;;;;;4.65;1.23;;;;;;;;;;5075721;28;20752;-79
2022/04/09 09:54:17;;;;;;;3.90;1.50;;;;;;;;;;5043350;28;20036;-78
2022/04/09 09:56:44;;;;;;;6.65;1.50;;;;;;;;;;5036143;28;20093;-79
2022/04/09 09:59:13;;;;;;;5.80;1.58;;;;;;;;;;5042799;28;20055;-79
2022/04/09 10:01:42;;;;;;;8.50;2.00;;;;;;;;;;5060160;28;20043;-78
2022/04/09 10:04:09;;;;;;;6.78;1.88;;;;;;;;;;5053511;28;20051;-78
2022/04/09 10:06:36;;;;;;;4.70;1.40;;;;;;;;;;5060111;28;20090;-78
2022/04/09 10:09:06;;;;;;;6.93;1.40;;;;;;;;;;5068858;28;20111;-78
2022/04/09 10:11:36;;;;;;;4.00;1.20;;;;;;;;;;5045388;28;20062;-78
2022/04/09 10:14:02;;;;;;;5.93;1.50;;;;;;;;;;5061801;28;20085;-78
2022/04/09 10:16:28;;;;;;;11.32;2.05;;;;;;;;;;5079125;28;20093;-78
2022/04/09 10:18:56;;;;;;;5.35;1.92;;;;;;;;;;5079420;28;20039;-79
2022/04/09 10:21:21;;;;;;;5.00;1.50;;;;;;;;;;5046155;28;20053;-78
2022/04/09 10:23:46;;;;;;;6.65;1.65;;;;;;;;;;5075258;28;20071;-79
2022/04/09 10:26:12;;;;;;;4.00;1.10;;;;;;;;;;5042567;28;20044;-79
2022/04/09 10:28:39;;;;;;;5.30;1.58;;;;;;;;;;5059889;28;20118;-79
2022/04/09 10:31:22;;;;;;;5.60;1.50;;;;;;;;;;5079016;28;20031;-79
2022/04/09 10:33:55;;;;;;;7.32;1.52;;;;;;;;;;5096086;28;20028;-79
2022/04/09 10:36:42;;;;;;;6.88;1.52;;;;;;;;;;5079338;28;20569;-79
2022/04/09 10:39:39;;;;;;;6.47;1.10;;;;;;;;;;5096004;28;20553;-79
2022/04/09 10:42:04;;;;;;;8.43;1.73;;;;;;;;;;5097444;28;20039;-80
2022/04/09 10:44:42;;;;;;;5.15;1.52;;;;;;;;;;5078895;28;20569;-80
2022/04/09 10:47:07;;;;;;;4.15;1.08;;;;;;;;;;5078737;28;20446;-80
2022/04/09 10:49:33;;;;;;;7.97;1.42;;;;;;;;;;5061979;28;20036;-80
2022/04/09 10:52:03;;;;;;;7.05;2.05;;;;;;;;;;5062011;28;20050;-80
2022/04/09 10:54:29;;;;;;;5.10;1.20;;;;;;;;;;5077479;28;20504;-80
2022/04/09 10:56:54;;;;;;;4.65;1.38;;;;;;;;;;5056499;28;20135;-80
2022/04/09 10:59:22;;;;;;;6.88;1.13;;;;;;;;;;5024790;28;20034;-78
2022/04/09 11:01:49;;;;;;;5.07;1.27;;;;;;;;;;5058256;28;20055;-78
2022/04/09 11:04:27;;;;;;;6.50;2.13;;;;;;;;;;5025912;28;20032;-78
2022/04/09 11:07:06;;;;;;;7.03;1.65;;;;;;;;;;5093618;28;20406;-78
2022/04/09 11:09:42;;;;;;;4.25;1.10;;;;;;;;;;5058646;28;20032;-78
2022/04/09 11:12:08;;;;;;;5.10;1.20;;;;;;;;;;5043431;28;20532;-78
2022/04/09 11:14:49;;;;;;;5.93;1.08;;;;;;;;;;5050849;28;20047;-78
2022/04/09 11:17:37;;;;;;;5.35;0.93;;;;;;;;;;5066908;28;20127;-78
2022/04/09 11:20:06;;;;;;;7.43;2.30;;;;;;;;;;5074462;28;20115;-78
2022/04/09 11:22:33;;;;;;;5.65;1.80;;;;;;;;;;5075462;28;20058;-78
2022/04/09 11:24:58;;;;;;;5.25;2.35;;;;;;;;;;5090279;28;20545;-78
2022/04/09 11:27:26;;;;;;;7.80;2.72;;;;;;;;;;5077826;28;20140;-78
2022/04/09 11:29:52;;;;;;;5.35;2.50;;;;;;;;;;5077541;28;20114;-78
2022/04/09 11:32:18;;;;;;;4.57;1.92;;;;;;;;;;5062166;28;20556;-78
2022/04/09 11:34:48;;;;;;;4.47;1.42;;;;;;;;;;5074453;28;20047;-78
2022/04/09 11:37:14;;;;;;;6.68;2.65;;;;;;;;;;5057977;28;20036;-78
2022/04/09 11:39:40;;;;;;;4.57;1.90;;;;;;;;;;5058094;28;20111;-78
2022/04/09 11:42:06;;;;;;;3.85;1.63;;;;;;;;;;5057875;28;20043;-78
2022/04/09 11:44:32;;;;;;;4.65;1.83;;;;;;;;;;5057722;28;20062;-79
2022/04/09 11:46:58;;;;;;;7.75;1.67;;;;;;;;;;5057887;28;20093;-78
2022/04/09 11:49:33;;;;;;;6.43;1.70;;;;;;;;;;5041305;28;20039;-79
2022/04/09 11:51:58;;;;;;;4.53;1.60;;;;;;;;;;5040777;28;20070;-81
2022/04/09 11:54:25;;;;;;;7.78;1.95;;;;;;;;;;5057540;28;20509;-82
2022/04/09 11:56:51;;;;;;;5.50;1.50;;;;;;;;;;5050005;28;20044;-82
2022/04/09 11:59:16;;;;;;;5.68;1.85;;;;;;;;;;5073688;28;20085;-82
2022/04/09 12:01:45;;;;;;;5.82;1.65;;;;;;;;;;5040617;28;20321;-82
2022/04/09 12:04:11;;;;;;;3.67;1.58;;;;;;;;;;5057419;28;20039;-82
2022/04/09 12:06:40;;;;;;;4.45;2.20;;;;;;;;;;5036812;28;20044;-82
2022/04/09 12:09:06;;;;;;;8.68;1.77;;;;;;;;;;5040004;28;20048;-81
2022/04/09 12:11:32;;;;;;;5.95;1.38;;;;;;;;;;5056632;28;20028;-81
2022/04/09 12:14:11;;;;;;;15.18;1.88;;;;;;;;;;5048425;28;20036;-79
2022/04/09 12:16:38;;;;;;;6.85;1.88;;;;;;;;;;5045355;28;20046;-80
2022/04/09 12:19:07;;;;;;;4.50;1.52;;;;;;;;;;5040580;28;20028;-80
2022/04/09 12:21:32;;;;;;;5.55;1.77;;;;;;;;;;5064275;28;20043;-80
2022/04/09 12:24:02;;;;;;;5.88;1.50;;;;;;;;;;5063330;28;20027;-80
2022/04/09 12:26:28;;;;;;;8.93;1.88;;;;;;;;;;5059694;28;20453;-80
2022/04/09 12:29:07;;;;;;;11.60;2.03;;;;;;;;;;5058858;28;20031;-80
2022/04/09 12:31:33;;;;;;;9.27;1.50;;;;;;;;;;5077083;28;20089;-79
2022/04/09 12:33:59;;;;;;;6.53;1.80;;;;;;;;;;5076596;28;20028;-80
2022/04/09 12:36:24;;;;;;;10.63;2.08;;;;;;;;;;5042912;28;20067;-80
2022/04/09 12:38:50;;;;;;;10.18;2.90;;;;;;;;;;5042949;28;20043;-80
2022/04/09 12:41:15;;;;;;;9.38;1.52;;;;;;;;;;5042633;28;20043;-80
2022/04/09 12:43:42;;;;;;;6.07;1.70;;;;;;;;;;5076767;28;20089;-78
2022/04/09 12:46:12;;;;;;;7.30;1.30;;;;;;;;;;5060226;28;20098;-78
2022/04/09 12:48:49;;;;;;;8.20;1.77;;;;;;;;;;5073883;28;20036;-78
2022/04/09 12:51:18;;;;;;;12.05;1.70;;;;;;;;;;5060606;28;20070;-79
2022/04/09 12:53:45;;;;;;;10.90;1.80;;;;;;;;;;5060543;28;20036;-78
2022/04/09 12:56:14;;;;;;;7.57;1.20;;;;;;;;;;5039770;28;20050;-78
2022/04/09 12:58:40;;;;;;;6.13;1.88;;;;;;;;;;5023271;28;20036;-78
2022/04/09 13:01:06;;;;;;;11.43;1.70;;;;;;;;;;5056839;28;20525;-78
2022/04/09 13:03:32;;;;;;;6.82;1.55;;;;;;;;;;5040284;28;20406;-78
2022/04/09 13:05:58;;;;;;;7.40;1.60;;;;;;;;;;5040170;28;20043;-78
2022/04/09 13:08:23;;;;;;;6.05;1.38;;;;;;;;;;5040033;28;20040;-79
2022/04/09 13:10:49;;;;;;;5.63;1.40;;;;;;;;;;5056039;28;20036;-79
2022/04/09 13:13:15;;;;;;;7.97;1.08;;;;;;;;;;5025872;28;20440;-79
2022/04/09 13:15:41;;;;;;;5.72;1.63;;;;;;;;;;5055831;28;20117;-79
2022/04/09 13:18:06;;;;;;;4.93;1.65;;;;;;;;;;5059620;28;20027;-79
2022/04/09 13:20:32;;;;;;;8.30;1.20;;;;;;;;;;5047280;28;20462;-79
2022/04/09 13:22:57;;;;;;;3.88;0.90;;;;;;;;;;5080237;28;20111;-79
2022/04/09 13:25:23;;;;;;;3.47;1.33;;;;;;;;;;5046450;28;20490;-79
2022/04/09 13:27:49;;;;;;;3.42;1.13;;;;;;;;;;5080524;28;20031;-80
2022/04/09 13:30:15;;;;;;;5.30;1.77;;;;;;;;;;5064269;28;20038;-79
2022/04/09 13:32:41;;;;;;;3.67;1.10;;;;;;;;;;5047298;28;20032;-79
2022/04/09 13:35:07;;;;;;;2.25;0.73;;;;;;;;;;5080405;28;20044;-79
2022/04/09 13:37:33;;;;;;;2.97;1.15;;;;;;;;;;5063752;28;20078;-79
2022/04/09 13:39:59;;;;;;;4.30;0.90;;;;;;;;;;5079763;28;20031;-79
2022/04/09 13:42:24;;;;;;;4.88;1.23;;;;;;;;;;5063424;28;20032;-79
2022/04/09 13:44:51;;;;;;;3.63;0.82;;;;;;;;;;5063703;28;20484;-79
2022/04/09 13:47:16;;;;;;;4.88;0.85;;;;;;;;;;5080406;28;20071;-79
2022/04/09 13:49:41;;;;;;;2.85;1.08;;;;;;;;;;5079830;28;20072;-78
2022/04/09 13:52:08;;;;;;;2.83;0.77;;;;;;;;;;5079555;28;20040;-78
2022/04/09 13:54:33;;;;;;;3.42;0.90;;;;;;;;;;5079958;28;20043;-78
2022/04/09 13:56:58;;;;;;;3.60;0.80;;;;;;;;;;5065648;28;20024;-78
2022/04/09 13:59:24;;;;;;;3.13;0.60;;;;;;;;;;5059237;28;20432;-78
2022/04/09 14:01:49;;;;;;;3.35;0.80;;;;;;;;;;5042810;28;20024;-78
2022/04/09 14:04:15;;;;;;;2.90;0.50;;;;;;;;;;5043634;28;20042;-78
2022/04/09 14:06:40;;;;;;;2.85;0.55;;;;;;;;;;5059498;28;20509;-78
2022/04/09 14:09:06;;;;;;;2.45;0.52;;;;;;;;;;5066343;28;20039;-78
2022/04/09 14:11:31;;;;;;;2.38;0.85;;;;;;;;;;5059371;28;20154;-78
2022/04/09 14:13:57;;;;;;;3.28;0.50;;;;;;;;;;5067908;28;20050;-78
2022/04/09 14:16:22;;;;;;;2.45;0.63;;;;;;;;;;5075994;28;20039;-78
2022/04/09 14:18:48;;;;;;;3.42;0.70;;;;;;;;;;5040079;28;20486;-78
2022/04/09 14:21:13;;;;;;;3.10;1.27;;;;;;;;;;5094274;28;20394;-78
2022/04/09 14:23:39;;;;;;;3.65;1.25;;;;;;;;;;5079143;28;20035;-78
2022/04/09 14:26:04;;;;;;;3.22;1.13;;;;;;;;;;5078928;28;20536;-78
2022/04/09 14:28:30;;;;;;;3.50;1.33;;;;;;;;;;5079015;28;20511;-78
2022/04/09 14:30:55;;;;;;;6.28;1.42;;;;;;;;;;5079061;28;20502;-78
2022/04/09 14:33:21;;;;;;;3.42;1.50;;;;;;;;;;5079370;28;20111;-78
2022/04/09 14:35:50;;;;;;;2.83;1.23;;;;;;;;;;5079219;28;20060;-78
2022/04/09 14:38:15;;;;;;;4.80;1.50;;;;;;;;;;5078210;28;20049;-78
2022/04/09 14:40:40;;;;;;;2.92;1.13;;;;;;;;;;5095622;28;20032;-78